Time;durP1;ratioP1;P1;durP2;ratioP2;P2;SDS_P1;SDS_P2;PMS_P1;PMS_P2;Temp;Humidity;BMP_temperature;BMP_pressure;BME280_temperature;BME280_humidity;BME280_pressure;Samples;Min_cycle;Max_cycle;Signal;HPM_P1;HPM_P2
2022/09/29 00:00:51;;;;;;;;;;;;;;;17.69;79.61;99970.66;5063219;28;20411;-88
2022/09/29 00:03:20;;;;;;;;;;;;;;;17.61;79.96;99969.09;5040023;28;20327;-87
2022/09/29 00:05:48;;;;;;;;;;;;;;;17.67;79.75;99967.34;5068900;28;20422;-87
2022/09/29 00:08:14;;;;;;;;;;;;;;;17.68;79.60;99963.59;5072845;28;19982;-86
2022/09/29 00:10:39;;;;;;;;;;;;;;;17.68;79.31;99960.88;5073591;28;20365;-86
2022/09/29 00:13:06;;;;;;;;;;;;;;;17.67;79.48;99948.31;5073674;28;19952;-86
2022/09/29 00:15:31;;;;;;;;;;;;;;;17.63;79.60;99947.94;5057104;28;19928;-86
2022/09/29 00:17:57;;;;;;;;;;;;;;;17.63;79.62;99949.81;5072532;28;19931;-86
2022/09/29 00:20:23;;;;;;;;;;;;;;;17.64;79.65;99949.59;5056729;28;20015;-85
2022/09/29 00:22:50;;;;;;;;;;;;;;;17.63;79.89;99947.09;5093496;28;19923;-86
2022/09/29 00:25:16;;;;;;;;;;;;;;;17.62;79.69;99943.56;5065946;28;20008;-86
2022/09/29 00:27:42;;;;;;;;;;;;;;;17.62;79.53;99945.44;5107943;28;19904;-85
2022/09/29 00:30:07;;;;;;;;;;;;;;;17.59;79.80;99943.19;5091133;28;19924;-86
2022/09/29 00:32:34;;;;;;;;;;;;;;;17.59;79.85;99948.63;5106428;28;20360;-87
2022/09/29 00:34:59;;;;;;;;;;;;;;;17.60;80.08;99950.28;5074523;28;20316;-87
2022/09/29 00:37:27;;;;;;;;;;;;;;;17.58;79.89;99941.50;5088769;28;19920;-86
2022/09/29 00:39:52;;;;;;;;;;;;;;;17.56;80.00;99944.47;5061968;28;20417;-87
2022/09/29 00:42:19;;;;;;;;;;;;;;;17.57;79.90;99948.00;5090513;28;20016;-88
2022/09/29 00:44:51;;;;;;;;;;;;;;;17.54;79.96;99951.19;5056299;28;20051;-87
2022/09/29 00:47:17;;;;;;;;;;;;;;;17.55;80.27;99950.13;5092202;28;19916;-87
2022/09/29 00:49:53;;;;;;;;;;;;;;;17.55;80.04;99941.97;5091458;28;19924;-88
2022/09/29 00:52:24;;;;;;;;;;;;;;;17.55;79.95;99944.69;5072538;28;19924;-87
2022/09/29 00:54:56;;;;;;;;;;;;;;;17.54;79.85;99946.56;5071575;28;19920;-87
2022/09/29 00:57:22;;;;;;;;;;;;;;;17.51;79.67;99950.56;5067059;28;20661;-87
2022/09/29 01:00:02;;;;;;;;;;;;;;;17.47;79.90;99946.63;5072391;28;19920;-88
2022/09/29 01:02:28;;;;;;;;;;;;;;;17.47;79.99;99960.22;5070103;28;19920;-87
2022/09/29 01:04:53;;;;;;;;;;;;;;;17.42;79.91;99959.22;5089851;28;19951;-88
2022/09/29 01:07:21;;;;;;;;;;;;;;;17.30;80.25;99962.69;5052292;28;20430;-88
2022/09/29 01:09:47;;;;;;;;;;;;;;;17.25;80.30;99969.81;5060793;28;19948;-86
2022/09/29 01:12:12;;;;;;;;;;;;;;;17.23;80.19;99983.63;5092658;28;19974;-85
2022/09/29 01:14:38;;;;;;;;;;;;;;;17.20;79.32;99967.75;5090781;28;20438;-86
2022/09/29 01:17:04;;;;;;;;;;;;;;;17.23;79.45;99977.34;5090214;28;19927;-88
2022/09/29 01:19:38;;;;;;;;;;;;;;;17.22;79.34;99975.69;5072567;28;19920;-86
2022/09/29 01:22:22;;;;;;;;;;;;;;;17.28;79.25;99978.38;5091426;28;19920;-86
2022/09/29 01:24:54;;;;;;;;;;;;;;;17.30;79.36;99978.13;5091504;28;20010;-87
2022/09/29 01:27:35;;;;;;;;;;;;;;;17.28;79.68;99970.22;5093803;28;19923;-88
2022/09/29 01:30:07;;;;;;;;;;;;;;;17.39;79.42;99973.25;5074683;28;20411;-88
2022/09/29 01:32:45;;;;;;;;;;;;;;;17.48;79.25;99975.47;5074428;28;19922;-85
2022/09/29 01:35:22;;;;;;;;;;;;;;;17.52;79.63;99971.25;5059477;28;20006;-87
2022/09/29 01:37:50;;;;;;;;;;;;;;;17.62;79.38;99970.72;5066358;28;19926;-88
2022/09/29 01:40:17;;;;;;;;;;;;;;;17.64;79.52;99968.63;5091552;28;20346;-87
2022/09/29 01:42:45;;;;;;;;;;;;;;;17.75;79.43;99974.38;5076028;28;20007;-87
2022/09/29 01:45:15;;;;;;;;;;;;;;;17.73;79.59;99982.78;5075338;28;20388;-86
2022/09/29 01:47:44;;;;;;;;;;;;;;;17.80;79.35;99988.97;5091404;28;20318;-87
2022/09/29 01:50:14;;;;;;;;;;;;;;;17.91;79.22;99980.09;5062580;28;19963;-86
2022/09/29 01:52:40;;;;;;;;;;;;;;;18.00;79.09;99974.34;5078146;28;19916;-86
2022/09/29 01:55:09;;;;;;;;;;;;;;;18.08;78.85;99968.63;5064720;28;19932;-87
2022/09/29 01:57:42;;;;;;;;;;;;;;;18.02;79.04;99969.53;5053734;28;19917;-87
2022/09/29 02:00:10;;;;;;;;;;;;;;;18.08;78.79;99971.34;5057023;28;19935;-86
2022/09/29 02:02:38;;;;;;;;;;;;;;;18.13;78.61;99982.38;5059452;28;19924;-87
2022/09/29 02:05:04;;;;;;;;;;;;;;;18.15;78.72;99982.97;5076950;28;19952;-85
2022/09/29 02:07:36;;;;;;;;;;;;;;;18.18;78.30;99973.53;5061400;28;19925;-86
2022/09/29 02:10:04;;;;;;;;;;;;;;;18.14;78.50;99975.84;5078194;28;19923;-86
2022/09/29 02:12:30;;;;;;;;;;;;;;;18.19;78.62;99972.47;5060433;28;20012;-84
2022/09/29 02:14:55;;;;;;;;;;;;;;;18.20;78.87;99971.41;5065773;28;20380;-85
2022/09/29 02:17:22;;;;;;;;;;;;;;;18.18;78.86;99968.91;5079860;28;20383;-86
2022/09/29 02:19:48;;;;;;;;;;;;;;;18.17;79.11;99967.25;5090476;28;19920;-87
2022/09/29 02:22:14;;;;;;;;;;;;;;;18.17;79.12;99969.97;5059313;28;19942;-88
2022/09/29 02:24:40;;;;;;;;;;;;;;;18.14;79.16;99967.69;5079635;28;19916;-86
2022/09/29 02:27:05;;;;;;;;;;;;;;;18.16;79.37;99965.59;5061467;28;19928;-86
2022/09/29 02:29:32;;;;;;;;;;;;;;;18.11;79.41;99973.59;5077592;28;19920;-85
2022/09/29 02:32:01;;;;;;;;;;;;;;;18.07;79.44;99975.09;5073285;28;19920;-87
2022/09/29 02:34:27;;;;;;;;;;;;;;;18.07;79.34;99965.06;5041721;28;20032;-86
2022/09/29 02:36:52;;;;;;;;;;;;;;;18.06;79.14;99959.84;5048879;28;19948;-86
2022/09/29 02:39:20;;;;;;;;;;;;;;;18.01;79.07;99974.13;5071960;28;19956;-88
2022/09/29 02:42:05;;;;;;;;;;;;;;;17.99;79.14;99972.69;5066680;28;19924;-85
2022/09/29 02:44:38;;;;;;;;;;;;;;;17.96;79.87;99970.41;5045369;28;19982;-88
2022/09/29 02:47:22;;;;;;;;;;;;;;;17.92;80.08;99976.31;5053340;28;19920;-86
2022/09/29 02:49:47;;;;;;;;;;;;;;;17.87;79.85;99968.00;5070274;28;19920;-87
2022/09/29 02:52:22;;;;;;;;;;;;;;;17.84;79.92;99967.63;5071507;28;19942;-86
2022/09/29 02:54:50;;;;;;;;;;;;;;;17.81;79.74;99966.19;5078453;28;20395;-86
2022/09/29 02:57:21;;;;;;;;;;;;;;;17.73;79.89;99963.75;5051950;28;19923;-86
2022/09/29 03:00:16;;;;;;;;;;;;;;;17.69;80.24;99967.94;5071970;28;20411;-87
2022/09/29 03:02:42;;;;;;;;;;;;;;;17.66;80.45;99966.50;5056515;28;19925;-86
2022/09/29 03:05:10;;;;;;;;;;;;;;;17.44;81.47;99965.25;5087005;28;19920;-87
2022/09/29 03:07:36;;;;;;;;;;;;;;;17.37;81.74;99968.06;5093228;28;19916;-87
2022/09/29 03:10:01;;;;;;;;;;;;;;;17.17;81.72;99972.81;5072178;28;19924;-87
2022/09/29 03:12:27;;;;;;;;;;;;;;;17.03;81.65;99966.66;5091887;28;19931;-87
2022/09/29 03:14:53;;;;;;;;;;;;;;;17.06;81.51;99972.47;5082863;28;20413;-88
2022/09/29 03:17:21;;;;;;;;;;;;;;;17.05;81.06;99975.41;5068946;28;19920;-88
2022/09/29 03:19:47;;;;;;;;;;;;;;;16.86;81.80;99969.91;5087772;28;19956;-87
2022/09/29 03:22:13;;;;;;;;;;;;;;;16.82;82.05;99971.38;5070055;28;19931;-87
2022/09/29 03:24:38;;;;;;;;;;;;;;;16.94;81.17;99973.41;5072615;28;19928;-87
2022/09/29 03:27:05;;;;;;;;;;;;;;;16.92;81.23;99970.06;5088928;28;19919;-86
2022/09/29 03:29:30;;;;;;;;;;;;;;;16.92;81.24;99970.88;5090716;28;20031;-88
2022/09/29 03:31:56;;;;;;;;;;;;;;;16.86;81.48;99969.91;5094359;28;20366;-87
2022/09/29 03:34:22;;;;;;;;;;;;;;;16.80;82.17;99983.50;5076124;28;20397;-87
2022/09/29 03:36:48;;;;;;;;;;;;;;;16.84;81.46;99976.59;5089883;28;19920;-88
2022/09/29 03:39:13;;;;;;;;;;;;;;;16.76;82.16;99968.66;5066612;28;19947;-87
2022/09/29 03:41:39;;;;;;;;;;;;;;;16.78;81.87;99977.44;5071752;28;19974;-86
2022/09/29 03:44:05;;;;;;;;;;;;;;;16.78;81.70;99980.97;5084726;28;20348;-89
2022/09/29 03:46:31;;;;;;;;;;;;;;;16.79;81.40;99971.81;5089129;28;20656;-87
2022/09/29 03:48:57;;;;;;;;;;;;;;;16.79;81.62;99979.13;5089990;28;19927;-86
2022/09/29 03:51:22;;;;;;;;;;;;;;;16.79;81.17;99984.56;5102240;28;19920;-88
2022/09/29 03:53:47;;;;;;;;;;;;;;;16.75;81.22;99984.13;5089900;28;20129;-89
2022/09/29 03:56:18;;;;;;;;;;;;;;;16.77;81.44;99976.59;5090678;28;19931;-86
2022/09/29 03:58:46;;;;;;;;;;;;;;;16.80;81.02;99978.06;5099506;28;19920;-86
2022/09/29 04:01:13;;;;;;;;;;;;;;;16.77;81.21;99973.88;5083634;28;19942;-87
2022/09/29 04:03:39;;;;;;;;;;;;;;;16.79;81.11;99971.00;5083082;28;20375;-88
2022/09/29 04:06:06;;;;;;;;;;;;;;;16.79;81.03;99971.00;5086535;28;19982;-88
2022/09/29 04:08:33;;;;;;;;;;;;;;;16.79;81.13;99971.00;5081782;28;19924;-88
2022/09/29 04:10:58;;;;;;;;;;;;;;;16.81;81.22;99974.28;5070161;28;20296;-87
2022/09/29 04:13:25;;;;;;;;;;;;;;;16.80;81.26;99968.03;5088291;28;19927;-88
2022/09/29 04:15:50;;;;;;;;;;;;;;;16.80;81.64;99978.91;5061002;28;19924;-87
2022/09/29 04:18:17;;;;;;;;;;;;;;;16.81;81.43;99985.16;5043350;28;20899;-88
2022/09/29 04:20:51;;;;;;;;;;;;;;;16.84;81.68;99974.72;5101587;28;20348;-88
2022/09/29 04:23:17;;;;;;;;;;;;;;;16.88;81.22;99972.41;5086592;28;19916;-88
2022/09/29 04:25:44;;;;;;;;;;;;;;;16.85;81.38;99976.34;5102123;28;19920;-87
2022/09/29 04:28:11;;;;;;;;;;;;;;;16.90;81.41;99981.13;5107327;28;19923;-89
2022/09/29 04:30:37;;;;;;;;;;;;;;;16.91;81.46;99980.09;5107392;28;19922;-89
2022/09/29 04:33:03;;;;;;;;;;;;;;;16.94;81.29;99982.38;5076395;28;19927;-89
2022/09/29 04:35:29;;;;;;;;;;;;;;;16.93;81.29;99979.84;5075210;28;19980;-87
2022/09/29 04:37:56;;;;;;;;;;;;;;;16.93;81.59;99972.56;5084635;28;19950;-88
2022/09/29 04:40:21;;;;;;;;;;;;;;;16.96;81.79;99974.84;5065023;28;19916;-87
2022/09/29 04:42:46;;;;;;;;;;;;;;;17.02;81.55;99979.41;5071227;28;20303;-88
2022/09/29 04:45:12;;;;;;;;;;;;;;;17.00;82.08;99973.34;5069606;28;19931;-88
2022/09/29 04:47:37;;;;;;;;;;;;;;;17.01;82.17;99983.16;5083989;28;19920;-89
2022/09/29 04:50:02;;;;;;;;;;;;;;;17.06;81.51;99983.31;5090022;28;19916;-89
2022/09/29 04:52:27;;;;;;;;;;;;;;;17.16;81.32;99988.28;5091502;28;19920;-88
2022/09/29 04:54:54;;;;;;;;;;;;;;;17.16;81.40;99987.44;5089763;28;19924;-88
2022/09/29 04:57:19;;;;;;;;;;;;;;;17.22;81.27;99994.72;5074036;28;19920;-88
2022/09/29 04:59:50;;;;;;;;;;;;;;;17.18;81.99;100005.16;5082634;28;20042;-89
2022/09/29 05:02:18;;;;;;;;;;;;;;;17.35;82.14;100005.47;5093793;28;19923;-88
2022/09/29 05:04:52;;;;;;;;;;;;;;;17.51;82.76;100002.22;5104651;28;19927;-90
2022/09/29 05:07:22;;;;;;;;;;;;;;;17.61;83.17;100006.31;5110624;28;19927;-90
2022/09/29 05:09:50;;;;;;;;;;;;;;;17.82;83.18;100005.09;5101105;28;19916;-88
2022/09/29 05:12:16;;;;;;;;;;;;;;;17.90;82.86;100010.22;5078303;28;19924;-89
2022/09/29 05:14:42;;;;;;;;;;;;;;;18.06;82.47;100011.53;5087442;28;20064;-88
2022/09/29 05:17:08;;;;;;;;;;;;;;;18.21;81.88;100011.97;5071462;28;20088;-88
2022/09/29 05:19:34;;;;;;;;;;;;;;;18.44;81.22;100010.47;5087800;28;20406;-89
2022/09/29 05:22:00;;;;;;;;;;;;;;;18.56;80.77;100014.06;5071053;28;19920;-89
2022/09/29 05:24:28;;;;;;;;;;;;;;;18.69;80.05;100013.91;5072105;28;19913;-91
2022/09/29 05:26:57;;;;;;;;;;;;;;;18.73;79.86;100008.81;5067707;28;20030;-89
2022/09/29 05:29:23;;;;;;;;;;;;;;;18.74;79.29;100008.59;5092314;28;20381;-90
2022/09/29 05:31:49;;;;;;;;;;;;;;;18.79;78.97;100020.72;5103501;28;19912;-92
2022/09/29 05:34:15;;;;;;;;;;;;;;;18.81;78.80;100024.06;5084665;28;19922;-94
2022/09/29 05:36:40;;;;;;;;;;;;;;;18.87;78.19;100031.28;5067678;28;19943;-87
2022/09/29 05:39:07;;;;;;;;;;;;;;;18.86;78.49;100029.63;5096388;28;19923;-86
2022/09/29 05:41:32;;;;;;;;;;;;;;;18.99;78.60;100043.06;5101473;28;19923;-91
2022/09/29 05:44:00;;;;;;;;;;;;;;;20.05;76.63;100045.16;5085639;28;20394;-89
2022/09/29 05:46:25;;;;;;;;;;;;;;;20.82;74.65;100032.06;5073410;28;19924;-87
2022/09/29 05:48:51;;;;;;;;;;;;;;;21.43;70.86;100023.34;5088103;28;20306;-87
2022/09/29 05:51:17;;;;;;;;;;;;;;;22.00;68.27;100023.13;5074669;28;20023;-86
2022/09/29 05:53:43;;;;;;;;;;;;;;;22.53;66.96;100029.88;5074285;28;19924;-87
2022/09/29 05:56:10;;;;;;;;;;;;;;;23.01;63.50;100021.13;5089763;28;19927;-86
2022/09/29 05:58:36;;;;;;;;;;;;;;;23.49;63.14;100013.88;5094776;28;19920;-85
2022/09/29 06:01:08;;;;;;;;;;;;;;;23.86;61.08;100013.91;5074979;28;20022;-87
2022/09/29 06:03:34;;;;;;;;;;;;;;;24.16;60.52;100012.41;5093860;28;19923;-86
2022/09/29 06:06:09;;;;;;;;;;;;;;;24.61;58.96;100008.25;5092299;28;19938;-87
2022/09/29 06:08:35;;;;;;;;;;;;;;;24.94;56.55;100001.47;5074999;28;20023;-86
2022/09/29 06:11:07;;;;;;;;;;;;;;;25.28;56.63;100000.97;5075828;28;19920;-86
2022/09/29 06:13:33;;;;;;;;;;;;;;;25.62;54.69;100006.75;5095103;28;19923;-86
2022/09/29 06:15:58;;;;;;;;;;;;;;;25.90;53.66;100010.88;5094329;28;19981;-87
2022/09/29 06:18:27;;;;;;;;;;;;;;;26.10;52.91;100006.41;5080904;28;20407;-86
2022/09/29 06:20:52;;;;;;;;;;;;;;;26.27;51.48;100014.34;5077555;28;19934;-86
2022/09/29 06:23:18;;;;;;;;;;;;;;;26.50;50.74;100013.72;5108918;28;20391;-88
2022/09/29 06:25:44;;;;;;;;;;;;;;;26.67;49.57;100021.66;5102173;28;19916;-85
2022/09/29 06:28:09;;;;;;;;;;;;;;;26.88;49.07;100021.53;5094825;28;20284;-85
2022/09/29 06:30:34;;;;;;;;;;;;;;;27.25;48.66;100014.69;5110974;28;19966;-85
2022/09/29 06:33:01;;;;;;;;;;;;;;;27.46;46.84;100015.34;5093665;28;19917;-85
2022/09/29 06:38:10;;;;;;;;;;;;;;;27.72;44.14;100018.69;5088756;28;19970;-87
2022/09/29 06:40:36;;;;;;;;;;;;;;;27.83;45.33;100020.28;5075284;28;20050;-87
2022/09/29 06:43:01;;;;;;;;;;;;;;;28.16;44.92;100015.78;5094517;28;19920;-85
2022/09/29 06:45:28;;;;;;;;;;;;;;;28.27;43.22;100032.25;5075868;28;19920;-87
2022/09/29 06:47:57;;;;;;;;;;;;;;;28.39;42.86;100036.25;5094196;28;20020;-85
2022/09/29 06:50:23;;;;;;;;;;;;;;;28.78;42.26;100038.00;5106327;28;19987;-89
2022/09/29 06:52:49;;;;;;;;;;;;;;;28.93;38.39;100031.41;5094829;28;19938;-86
2022/09/29 06:55:16;;;;;;;;;;;;;;;28.71;37.39;100037.53;5099613;28;19920;-85
2022/09/29 06:57:44;;;;;;;;;;;;;;;28.75;37.06;100035.84;5089244;28;19916;-86
2022/09/29 07:00:11;;;;;;;;;;;;;;;29.07;36.92;100030.69;5076285;28;19954;-85
2022/09/29 07:02:36;;;;;;;;;;;;;;;29.30;37.07;100024.25;5075963;28;19971;-87
2022/09/29 07:05:02;;;;;;;;;;;;;;;29.50;36.23;100028.66;5092676;28;19924;-87
2022/09/29 07:07:28;;;;;;;;;;;;;;;29.67;35.95;100028.91;5094482;28;19920;-85
2022/09/29 07:09:54;;;;;;;;;;;;;;;30.16;36.17;100018.31;5075062;28;19947;-85
2022/09/29 07:12:22;;;;;;;;;;;;;;;30.55;34.95;100016.97;5093390;28;19923;-86
2022/09/29 07:14:47;;;;;;;;;;;;;;;30.80;37.23;100023.94;5074553;28;19932;-86
2022/09/29 07:17:14;;;;;;;;;;;;;;;30.69;38.11;100028.06;5093799;28;19923;-86
2022/09/29 07:19:41;;;;;;;;;;;;;;;31.15;37.39;100026.25;5092724;28;19920;-87
2022/09/29 07:22:08;;;;;;;;;;;;;;;30.87;38.22;100038.22;5075368;28;19916;-86
2022/09/29 07:24:34;;;;;;;;;;;;;;;30.88;37.73;100039.88;5093639;28;19916;-86
2022/09/29 07:26:59;;;;;;;;;;;;;;;31.03;37.86;100041.50;5074762;28;19920;-86
2022/09/29 07:29:24;;;;;;;;;;;;;;;31.41;37.04;100041.16;5074635;28;19920;-87
2022/09/29 07:31:51;;;;;;;;;;;;;;;31.48;36.20;100044.31;5074992;28;20349;-87
2022/09/29 07:34:17;;;;;;;;;;;;;;;31.62;35.89;100035.91;5093368;28;19916;-86
2022/09/29 07:36:42;;;;;;;;;;;;;;;32.14;34.86;100036.22;5065599;28;19924;-87
2022/09/29 07:39:07;;;;;;;;;;;;;;;32.46;32.92;100042.56;5093685;28;20409;-86
2022/09/29 07:41:33;;;;;;;;;;;;;;;32.45;34.14;100040.94;5092658;28;19920;-86
2022/09/29 07:43:59;;;;;;;;;;;;;;;33.96;32.08;100031.16;5055669;28;20352;-87
2022/09/29 07:46:25;;;;;;;;;;;;;;;34.90;29.76;100036.59;5089408;28;19920;-85
2022/09/29 07:48:50;;;;;;;;;;;;;;;35.84;28.60;100047.28;5092877;28;19923;-86
2022/09/29 07:51:16;;;;;;;;;;;;;;;35.99;27.56;100036.56;5077461;28;19920;-87
2022/09/29 07:53:41;;;;;;;;;;;;;;;36.34;27.26;100049.00;5085848;28;19967;-86
2022/09/29 07:56:11;;;;;;;;;;;;;;;36.74;25.97;100055.91;5071421;28;19993;-86
2022/09/29 07:58:36;;;;;;;;;;;;;;;36.22;26.61;100043.41;5060926;28;20311;-86
2022/09/29 08:01:04;;;;;;;;;;;;;;;35.95;27.01;100044.06;5073293;28;19920;-86
2022/09/29 08:03:30;;;;;;;;;;;;;;;36.69;26.44;100042.13;5074891;28;20310;-86
2022/09/29 08:05:56;;;;;;;;;;;;;;;37.83;24.95;100039.06;5091131;28;19949;-85
2022/09/29 08:08:24;;;;;;;;;;;;;;;38.72;24.05;100040.50;5074297;28;19930;-86
2022/09/29 08:10:49;;;;;;;;;;;;;;;39.21;23.29;100037.16;5091735;28;20007;-86
2022/09/29 08:13:16;;;;;;;;;;;;;;;38.14;23.77;100049.53;5088024;28;19952;-87
2022/09/29 08:15:41;;;;;;;;;;;;;;;39.44;22.12;100042.88;5090435;28;19920;-84
2022/09/29 08:18:06;;;;;;;;;;;;;;;39.93;21.62;100041.41;5072263;28;20036;-85
2022/09/29 08:20:33;;;;;;;;;;;;;;;39.83;21.25;100033.59;5063069;28;20418;-88
2022/09/29 08:22:59;;;;;;;;;;;;;;;38.47;22.11;100039.94;5089831;28;20026;-89
2022/09/29 08:25:25;;;;;;;;;;;;;;;38.56;21.87;100034.91;5090877;28;19923;-86
2022/09/29 08:27:50;;;;;;;;;;;;;;;39.18;20.92;100040.72;5089103;28;20391;-86
2022/09/29 08:30:16;;;;;;;;;;;;;;;37.76;22.83;100050.09;5091293;28;19920;-86
2022/09/29 08:32:44;;;;;;;;;;;;;;;39.31;21.43;100030.13;5073867;28;19971;-87
2022/09/29 08:35:09;;;;;;;;;;;;;;;40.44;20.43;100032.63;5071070;28;20477;-88
2022/09/29 08:37:35;;;;;;;;;;;;;;;41.26;19.56;100037.84;5075719;28;19920;-88
2022/09/29 08:40:00;;;;;;;;;;;;;;;42.47;18.39;100038.22;5077225;28;20284;-87
2022/09/29 08:42:28;;;;;;;;;;;;;;;43.32;17.40;100036.28;5073969;28;19925;-87
2022/09/29 08:44:58;;;;;;;;;;;;;;;42.81;17.77;100040.91;5074695;28;19981;-87
2022/09/29 08:47:27;;;;;;;;;;;;;;;43.93;16.59;100037.25;5068671;28;19935;-88
2022/09/29 08:49:53;;;;;;;;;;;;;;;43.35;16.75;100035.50;5084429;28;19927;-87
2022/09/29 08:52:20;;;;;;;;;;;;;;;43.73;16.95;100033.97;5068791;28;19921;-88
2022/09/29 08:54:46;;;;;;;;;;;;;;;40.85;19.50;100035.66;5078460;28;20246;-87
2022/09/29 08:57:18;;;;;;;;;;;;;;;43.19;17.90;100024.50;5075094;28;19923;-87
2022/09/29 08:59:52;;;;;;;;;;;;;;;43.28;17.09;100030.63;5062348;28;19928;-87
2022/09/29 09:02:20;;;;;;;;;;;;;;;44.17;16.53;100041.31;5100617;28;19965;-90
2022/09/29 09:05:05;;;;;;;;;;;;;;;44.78;15.64;100031.94;5099530;28;19947;-87
2022/09/29 09:07:46;;;;;;;;;;;;;;;45.84;15.02;100031.84;5101106;28;19916;-87
2022/09/29 09:10:14;;;;;;;;;;;;;;;46.43;14.61;100040.28;5077518;28;19953;-87
2022/09/29 09:13:00;;;;;;;;;;;;;;;45.64;15.38;100031.59;5093173;28;20046;-87
2022/09/29 09:15:51;;;;;;;;;;;;;;;44.37;16.20;100032.38;5085049;28;19931;-87
2022/09/29 09:18:32;;;;;;;;;;;;;;;45.06;16.47;100034.69;5093214;28;19939;-87
2022/09/29 09:21:14;;;;;;;;;;;;;;;45.28;16.66;100045.94;5057084;28;19927;-87
2022/09/29 09:23:43;;;;;;;;;;;;;;;44.47;17.60;100031.59;5095890;28;19916;-87
2022/09/29 09:26:09;;;;;;;;;;;;;;;45.21;17.16;100031.81;5095489;28;19927;-86
2022/09/29 09:28:42;;;;;;;;;;;;;;;44.19;18.57;100027.56;5095282;28;19916;-88
2022/09/29 09:31:24;;;;;;;;;;;;;;;43.63;19.37;100020.63;5077876;28;19992;-88
2022/09/29 09:34:00;;;;;;;;;;;;;;;43.73;18.92;100022.66;5090766;28;19923;-89
2022/09/29 09:36:30;;;;;;;;;;;;;;;45.23;17.87;100033.00;5090775;28;19916;-88
2022/09/29 09:39:03;;;;;;;;;;;;;;;44.34;18.57;100028.34;5096140;28;19947;-88
2022/09/29 09:41:28;;;;;;;;;;;;;;;44.83;18.12;100028.69;5096793;28;19916;-86
2022/09/29 09:43:59;;;;;;;;;;;;;;;43.09;19.56;100028.09;5076540;28;20314;-86
2022/09/29 09:46:27;;;;;;;;;;;;;;;42.71;20.15;100035.94;5095163;28;19971;-88
2022/09/29 09:48:53;;;;;;;;;;;;;;;43.00;19.62;100034.94;5092963;28;20032;-86
2022/09/29 09:51:25;;;;;;;;;;;;;;;43.16;19.54;100039.44;5095328;28;20387;-89
2022/09/29 09:53:52;;;;;;;;;;;;;;;42.57;20.07;100048.81;5073828;28;20488;-88
2022/09/29 09:56:20;;;;;;;;;;;;;;;40.53;22.74;100046.44;5077217;28;20463;-86
2022/09/29 09:58:58;;;;;;;;;;;;;;;38.97;24.69;100051.53;5095307;28;20033;-86
2022/09/29 10:01:24;;;;;;;;;;;;;;;37.10;27.01;100057.00;5093592;28;19916;-87
2022/09/29 10:03:49;;;;;;;;;;;;;;;36.16;28.51;100050.41;5070190;28;19925;-84
2022/09/29 10:09:19;;;;;;;;;;;;;;;33.25;33.59;100053.84;5089697;28;19988;-87
2022/09/29 10:11:47;;;;;;;;;;;;;;;32.17;35.38;100055.06;5055030;28;20385;-88
2022/09/29 10:14:25;;;;;;;;;;;;;;;31.93;36.04;100051.78;5095952;28;19923;-88
2022/09/29 10:16:55;;;;;;;;;;;;;;;31.45;37.04;100058.84;5081271;28;19920;-89
2022/09/29 10:19:22;;;;;;;;;;;;;;;30.85;38.55;100062.69;5083425;28;20417;-88
2022/09/29 10:21:49;;;;;;;;;;;;;;;30.29;39.82;100052.75;5072348;28;20011;-88
2022/09/29 10:24:27;;;;;;;;;;;;;;;29.76;41.07;100047.59;5088553;28;20455;-89
2022/09/29 10:26:59;;;;;;;;;;;;;;;29.28;42.51;100056.13;5081986;28;20043;-92
2022/09/29 10:29:38;;;;;;;;;;;;;;;28.77;43.88;100055.69;5094000;28;19912;-89
2022/09/29 10:32:08;;;;;;;;;;;;;;;29.64;42.06;100048.91;5094743;28;19927;-91
2022/09/29 10:34:37;;;;;;;;;;;;;;;30.03;41.22;100039.34;5094010;28;19920;-89
2022/09/29 10:37:04;;;;;;;;;;;;;;;29.31;42.82;100047.22;5074315;28;19934;-88
2022/09/29 10:39:41;;;;;;;;;;;;;;;27.73;46.63;100056.25;5082213;28;20003;-91
2022/09/29 10:42:30;;;;;;;;;;;;;;;27.68;46.74;100046.09;5089243;28;19912;-88
2022/09/29 10:45:20;;;;;;;;;;;;;;;27.36;47.23;100041.09;5086829;28;20019;-91
2022/09/29 10:47:55;;;;;;;;;;;;;;;27.23;47.89;100044.50;5102835;28;19928;-87
2022/09/29 10:50:22;;;;;;;;;;;;;;;28.12;45.98;100041.53;5104805;28;19960;-85
2022/09/29 10:52:47;;;;;;;;;;;;;;;28.87;44.76;100043.69;5074786;28;20430;-87
2022/09/29 10:55:23;;;;;;;;;;;;;;;29.83;42.19;100042.50;5093877;28;19920;-85
2022/09/29 10:57:48;;;;;;;;;;;;;;;31.30;38.86;100039.75;5075173;28;20406;-87
2022/09/29 11:00:25;;;;;;;;;;;;;;;32.03;37.02;100029.31;5065662;28;19942;-86
2022/09/29 11:02:51;;;;;;;;;;;;;;;31.03;38.70;100029.56;5094482;28;20449;-85
2022/09/29 11:05:17;;;;;;;;;;;;;;;29.83;41.68;100034.19;5076078;28;20020;-85
2022/09/29 11:07:44;;;;;;;;;;;;;;;29.05;43.10;100034.56;5076244;28;20312;-85
2022/09/29 11:10:33;;;;;;;;;;;;;;;29.10;42.98;100030.09;5083582;28;19927;-83
2022/09/29 11:13:00;;;;;;;;;;;;;;;29.15;43.21;100027.25;5092353;28;19999;-85
2022/09/29 11:15:29;;;;;;;;;;;;;;;29.53;42.86;100016.97;5090482;28;19920;-87
2022/09/29 11:17:54;;;;;;;;;;;;;;;30.98;39.94;100022.19;5087693;28;19916;-86
2022/09/29 11:20:20;;;;;;;;;;;;;;;30.36;40.57;100027.38;5084611;28;19940;-83
2022/09/29 11:22:58;;;;;;;;;;;;;;;29.75;42.36;100029.34;5097915;28;20005;-83
2022/09/29 11:25:32;;;;;;;;;;;;;;;29.28;43.40;100004.34;5094848;28;19924;-85
2022/09/29 11:28:00;;;;;;;;;;;;;;;28.14;46.12;100018.03;5086050;28;19932;-83
2022/09/29 11:30:27;;;;;;;;;;;;;;;27.49;48.05;100017.56;5074206;28;19916;-85
2022/09/29 11:32:57;;;;;;;;;;;;;;;26.92;49.60;100017.09;5074765;28;20338;-85
2022/09/29 11:35:25;;;;;;;;;;;;;;;26.88;50.12;100016.03;5091538;28;19923;-84
2022/09/29 11:38:15;;;;;;;;;;;;;;;26.68;51.02;100017.78;5092879;28;19923;-84
2022/09/29 11:40:40;;;;;;;;;;;;;;;25.99;53.34;100026.81;5082539;28;20400;-84
2022/09/29 11:43:15;;;;;;;;;;;;;;;25.29;56.23;100027.41;5092562;28;19924;-84
2022/09/29 11:45:59;;;;;;;;;;;;;;;25.25;59.60;100015.28;5073941;28;19920;-84
2022/09/29 11:48:27;;;;;;;;;;;;;;;24.82;59.23;100001.72;5092057;28;19916;-83
2022/09/29 11:51:18;;;;;;;;;;;;;;;24.12;60.85;100016.81;5091596;28;19974;-84
2022/09/29 11:53:56;;;;;;;;;;;;;;;23.81;62.67;100027.56;5091432;28;20398;-85
2022/09/29 11:56:22;;;;;;;;;;;;;;;23.51;66.91;100029.00;5090717;28;19947;-84
2022/09/29 11:58:57;;;;;;;;;;;;;;;23.12;67.95;100017.38;5082476;28;20366;-88
2022/09/29 12:01:41;;;;;;;;;;;;;;;22.96;68.54;100030.91;5090177;28;19980;-84
2022/09/29 12:04:16;;;;;;;;;;;;;;;22.70;68.50;100029.78;5085747;28;19924;-84
2022/09/29 12:06:52;;;;;;;;;;;;;;;22.69;69.00;100030.06;5090437;28;19920;-83
2022/09/29 12:09:36;;;;;;;;;;;;;;;22.86;69.53;100022.59;5091152;28;19923;-84
2022/09/29 12:12:20;;;;;;;;;;;;;;;22.83;69.19;100030.47;5090972;28;20319;-85
2022/09/29 12:14:57;;;;;;;;;;;;;;;22.96;67.85;100028.16;5093411;28;20387;-85
2022/09/29 12:17:23;;;;;;;;;;;;;;;22.99;68.23;100031.50;5092104;28;19973;-84
2022/09/29 12:19:50;;;;;;;;;;;;;;;23.23;68.16;100021.06;5073972;28;20032;-85
2022/09/29 12:22:18;;;;;;;;;;;;;;;23.33;69.25;100021.97;5057624;28;20367;-83
2022/09/29 12:24:47;;;;;;;;;;;;;;;23.57;67.14;100025.19;5092469;28;19916;-85
2022/09/29 12:27:15;;;;;;;;;;;;;;;23.67;65.93;100029.94;5072544;28;19916;-83
2022/09/29 12:29:42;;;;;;;;;;;;;;;23.99;64.91;100029.06;5085458;28;19920;-83
2022/09/29 12:32:15;;;;;;;;;;;;;;;24.06;64.87;100031.59;5075964;28;19920;-83
2022/09/29 12:34:59;;;;;;;;;;;;;;;24.11;64.78;100043.41;5109970;28;19923;-87
2022/09/29 12:37:26;;;;;;;;;;;;;;;24.48;64.78;100044.47;5107674;28;19938;-85
2022/09/29 12:39:55;;;;;;;;;;;;;;;24.73;62.30;100052.00;5102716;28;19920;-85
2022/09/29 12:42:23;;;;;;;;;;;;;;;24.85;62.09;100039.66;5105546;28;20387;-84
2022/09/29 12:45:05;;;;;;;;;;;;;;;25.01;61.05;100028.72;5104869;28;19931;-85
2022/09/29 12:47:33;;;;;;;;;;;;;;;24.67;61.22;100033.81;5087875;28;19923;-85
2022/09/29 12:50:25;;;;;;;;;;;;;;;24.82;61.72;100025.66;5087526;28;19920;-84
2022/09/29 12:52:56;;;;;;;;;;;;;;;25.10;61.24;100015.22;5088316;28;19977;-84
2022/09/29 12:55:24;;;;;;;;;;;;;;;25.36;60.33;100016.94;5078523;28;19925;-84